LFRQ/UIP METAR and TAF weather

Enter ICAO airport designator
Station Type Date Time Source
LFRQ METAR 2021/09/16 21:30 UTC NOAA

LFRQ 162130Z AUTO 31003KT CAVOK 13/13 Q1019


Station Type Date Time Source
LFRQ Decoded METAR 2021/09/16 21:30 UTC NOAA

Quimper, France (LFRQ) 47-58N 004-10W 94M
Sep 16, 2021 - 05:30 PM EDT / 2021.09.16 2130 UTC
Wind: from the NW (310 degrees) at 3 MPH (3 KT):0
Visibility: greater than 7 mile(s):0
Temperature: 55 F (13 C)
Dew Point: 55 F (13 C)
Relative Humidity: 100%
Pressure (altimeter): 30.09 in. Hg (1019 hPa)
ob: LFRQ 162130Z AUTO 31003KT CAVOK 13/13 Q1019
cycle: 21

Station Type Date Time Source
LFRQ TAF 2021/09/16 21:06 UTC NOAA

TAF TAF LFRQ 162102Z 1621/1718 CNL

Example: see airport list